createdAt,value
2022-10-23T00:02:37.831Z,10.58
2022-10-23T00:05:41.410Z,10.53
2022-10-23T00:08:43.556Z,10.53
2022-10-23T00:11:48.034Z,10.55
2022-10-23T00:14:50.142Z,10.60
2022-10-23T00:17:52.458Z,10.69
2022-10-23T00:20:54.550Z,10.69
2022-10-23T00:23:56.959Z,10.81
2022-10-23T00:26:59.068Z,10.98
2022-10-23T00:30:03.408Z,11.00
2022-10-23T00:33:05.858Z,10.92
2022-10-23T00:36:11.108Z,10.92
2022-10-23T00:39:13.511Z,10.93
2022-10-23T00:42:21.377Z,11.00
2022-10-23T00:45:31.642Z,11.01
2022-10-23T00:48:34.043Z,11.00
2022-10-23T00:51:40.367Z,11.00
2022-10-23T00:54:43.609Z,10.99
2022-10-23T00:57:48.459Z,10.94
2022-10-23T01:00:54.781Z,10.93
2022-10-23T01:03:57.535Z,10.96
2022-10-23T01:07:20.540Z,11.04
2022-10-23T01:10:34.818Z,11.08
2022-10-23T01:14:08.579Z,10.98
2022-10-23T01:17:43.704Z,10.96
2022-10-23T01:20:57.299Z,10.95
2022-10-23T01:24:09.017Z,10.95
2022-10-23T01:27:17.156Z,10.97
2022-10-23T01:30:19.410Z,10.94
2022-10-23T01:33:33.930Z,10.97
2022-10-23T01:36:39.634Z,10.99
2022-10-23T01:39:49.765Z,11.10
2022-10-23T01:42:59.515Z,11.09
2022-10-23T01:46:07.200Z,11.17
2022-10-23T01:49:14.094Z,11.16
2022-10-23T01:52:18.187Z,11.16
2022-10-23T01:55:22.282Z,11.10
2022-10-23T01:58:26.429Z,11.00
2022-10-23T02:01:31.701Z,10.94
2022-10-23T02:04:38.292Z,10.92
2022-10-23T02:07:40.958Z,10.96
2022-10-23T02:11:04.242Z,10.91
2022-10-23T02:14:17.685Z,10.86
2022-10-23T02:17:38.633Z,10.78
2022-10-23T02:20:45.646Z,10.58
2022-10-23T02:24:01.198Z,10.64
2022-10-23T02:27:12.912Z,10.57
2022-10-23T02:30:19.117Z,10.62
2022-10-23T02:33:22.897Z,10.58
2022-10-23T02:36:25.253Z,10.61
2022-10-23T02:39:28.166Z,10.56
2022-10-23T02:42:39.095Z,10.55
2022-10-23T02:45:57.262Z,10.50
2022-10-23T02:49:41.984Z,10.32
2022-10-23T02:53:06.355Z,10.28
2022-10-23T02:56:18.449Z,10.27
2022-10-23T02:59:28.435Z,10.15
2022-10-23T03:02:37.883Z,10.10
2022-10-23T03:05:42.097Z,9.91
2022-10-23T03:08:49.536Z,9.96
2022-10-23T03:11:53.576Z,10.01
2022-10-23T03:14:55.977Z,9.87
2022-10-23T03:17:58.077Z,9.90
2022-10-23T03:21:00.444Z,9.89
2022-10-23T03:24:03.207Z,9.84
2022-10-23T03:27:06.515Z,9.84
2022-10-23T03:30:09.381Z,9.85
2022-10-23T03:33:13.068Z,9.95
2022-10-23T03:36:15.113Z,9.96
2022-10-23T03:39:18.607Z,9.91
2022-10-23T03:42:20.777Z,9.92
2022-10-23T03:45:23.186Z,9.87
2022-10-23T03:48:25.322Z,9.83
2022-10-23T03:51:31.766Z,9.83
2022-10-23T03:54:34.574Z,9.74
2022-10-23T03:57:37.057Z,9.74
2022-10-23T04:00:39.407Z,9.68
2022-10-23T04:03:43.296Z,9.63
2022-10-23T04:06:45.577Z,9.53
2022-10-23T04:09:48.146Z,9.44
2022-10-23T04:12:50.544Z,9.25
2022-10-23T04:15:53.616Z,9.25
2022-10-23T04:18:55.774Z,9.25
2022-10-23T04:21:58.309Z,9.16
2022-10-23T04:25:00.388Z,9.14
2022-10-23T04:28:03.948Z,9.13
2022-10-23T04:31:08.019Z,9.10
2022-10-23T04:34:10.358Z,9.08
2022-10-23T04:37:12.660Z,9.07
2022-10-23T04:40:15.181Z,9.08
2022-10-23T04:43:17.316Z,9.06
2022-10-23T04:46:21.746Z,9.09
2022-10-23T04:49:24.190Z,8.90
2022-10-23T04:52:31.369Z,8.94
2022-10-23T04:55:34.596Z,8.91
2022-10-23T04:58:39.330Z,8.90
2022-10-23T05:01:41.506Z,8.79
2022-10-23T05:04:44.562Z,8.73
2022-10-23T05:07:50.976Z,8.76
2022-10-23T05:10:53.750Z,8.86
2022-10-23T05:13:55.889Z,8.90
2022-10-23T05:17:03.039Z,8.99
2022-10-23T05:20:09.649Z,9.05
2022-10-23T05:23:18.121Z,9.12
2022-10-23T05:26:25.484Z,9.07
2022-10-23T05:29:28.073Z,9.09
2022-10-23T05:32:32.189Z,9.12
2022-10-23T05:35:36.356Z,9.12
2022-10-23T05:38:38.517Z,9.08
2022-10-23T05:41:44.600Z,9.08
2022-10-23T05:44:46.814Z,9.06
2022-10-23T05:47:49.404Z,9.05
2022-10-23T05:50:51.887Z,9.03
2022-10-23T05:53:55.053Z,9.06
2022-10-23T05:56:57.472Z,9.11
2022-10-23T06:00:02.293Z,9.15
2022-10-23T06:03:15.400Z,9.10
2022-10-23T06:06:18.110Z,9.09
2022-10-23T06:09:20.522Z,9.12
2022-10-23T06:12:23.470Z,9.12
2022-10-23T06:15:26.071Z,9.10
2022-10-23T06:18:29.374Z,9.12
2022-10-23T06:21:36.625Z,9.22
2022-10-23T06:24:39.258Z,9.26
2022-10-23T06:27:43.395Z,9.33
2022-10-23T06:30:45.778Z,9.29
2022-10-23T06:33:47.877Z,9.37
2022-10-23T06:36:50.258Z,9.44
2022-10-23T06:39:54.702Z,9.54
2022-10-23T06:42:57.276Z,9.59
2022-10-23T06:46:02.703Z,9.59
2022-10-23T06:49:09.500Z,9.62
2022-10-23T06:52:18.514Z,9.66
2022-10-23T06:55:35.612Z,9.72
2022-10-23T06:58:39.002Z,9.77
2022-10-23T07:01:42.503Z,9.87
2022-10-23T07:04:45.042Z,9.90
2022-10-23T07:07:47.932Z,9.95
2022-10-23T07:10:50.287Z,10.06
2022-10-23T07:13:53.742Z,10.16
2022-10-23T07:16:56.150Z,10.23
2022-10-23T07:19:59.832Z,10.31
2022-10-23T07:23:02.084Z,10.37
2022-10-23T07:26:15.157Z,10.44
2022-10-23T07:29:17.464Z,10.51
2022-10-23T07:32:19.923Z,10.55
2022-10-23T07:35:24.857Z,10.70
2022-10-23T07:38:27.990Z,10.77
2022-10-23T07:41:30.221Z,10.87
2022-10-23T07:44:32.632Z,10.98
2022-10-23T07:47:34.889Z,11.06
2022-10-23T07:50:38.454Z,11.15
2022-10-23T07:53:41.724Z,11.23
2022-10-23T07:56:44.611Z,11.26
2022-10-23T07:59:47.266Z,11.32
2022-10-23T08:02:50.453Z,11.42
2022-10-23T08:05:54.322Z,11.57
2022-10-23T08:08:58.403Z,11.70
2022-10-23T08:12:02.511Z,11.83
2022-10-23T08:15:05.144Z,11.94
2022-10-23T08:18:08.262Z,12.02
2022-10-23T08:21:12.109Z,12.07
2022-10-23T08:24:14.670Z,12.16
2022-10-23T08:27:17.224Z,12.27
2022-10-23T08:30:19.904Z,12.30
2022-10-23T08:33:22.919Z,12.46
2022-10-23T08:36:27.910Z,12.59
2022-10-23T08:39:30.573Z,12.68
2022-10-23T08:42:38.795Z,12.81
2022-10-23T08:45:47.618Z,13.05
2022-10-23T08:49:02.426Z,13.33
2022-10-23T08:52:14.814Z,13.78
2022-10-23T08:55:27.076Z,14.01
2022-10-23T08:58:54.929Z,14.32
2022-10-23T09:02:22.277Z,14.34
2022-10-23T09:05:34.576Z,14.49
2022-10-23T09:08:52.247Z,14.47
2022-10-23T09:11:54.255Z,14.40
2022-10-23T09:15:22.846Z,14.36
2022-10-23T09:18:24.925Z,14.38
2022-10-23T09:21:30.444Z,14.43
2022-10-23T09:24:33.628Z,14.52
2022-10-23T09:27:36.216Z,14.63
2022-10-23T09:30:41.043Z,14.63
2022-10-23T09:33:58.062Z,14.68
2022-10-23T09:37:01.745Z,14.60
2022-10-23T09:40:34.001Z,14.60
2022-10-23T09:43:36.167Z,14.67
2022-10-23T09:46:39.803Z,14.85
2022-10-23T09:49:48.640Z,14.86
2022-10-23T09:52:52.839Z,14.97
2022-10-23T09:55:57.002Z,15.08
2022-10-23T09:59:02.836Z,15.16
2022-10-23T10:02:23.627Z,15.21
2022-10-23T10:05:33.515Z,15.14
2022-10-23T10:08:50.174Z,15.20
2022-10-23T10:11:59.208Z,15.40
2022-10-23T10:15:19.857Z,15.50
2022-10-23T10:18:30.985Z,15.56
2022-10-23T10:21:46.898Z,15.63
2022-10-23T10:25:12.512Z,15.71
2022-10-23T10:28:29.284Z,15.74
2022-10-23T10:31:50.573Z,15.73
2022-10-23T10:35:13.080Z,15.69
2022-10-23T10:38:36.207Z,15.70
2022-10-23T10:42:10.953Z,15.61
2022-10-23T10:45:26.968Z,15.66
2022-10-23T10:48:52.409Z,15.72
2022-10-23T10:52:25.526Z,15.77
2022-10-23T10:55:42.793Z,15.84
2022-10-23T10:59:12.743Z,15.76
2022-10-23T11:02:48.080Z,15.55
2022-10-23T11:05:53.490Z,15.66
2022-10-23T11:09:04.018Z,15.66
2022-10-23T11:12:26.145Z,15.70
2022-10-23T11:15:31.134Z,15.84
2022-10-23T11:18:35.001Z,15.94
2022-10-23T11:21:44.202Z,15.96
2022-10-23T11:25:15.638Z,16.00
2022-10-23T11:28:43.684Z,15.94
2022-10-23T11:31:54.248Z,15.95
2022-10-23T11:35:30.664Z,15.95
2022-10-23T11:38:38.959Z,16.12
2022-10-23T11:41:49.911Z,16.21
2022-10-23T11:44:52.268Z,16.08
2022-10-23T11:48:03.707Z,16.09
2022-10-23T11:51:25.915Z,16.20
2022-10-23T11:54:28.028Z,16.23
2022-10-23T12:00:38.458Z,16.04
2022-10-23T12:03:51.091Z,16.03
2022-10-23T12:07:00.501Z,15.94
2022-10-23T12:10:21.726Z,15.91
2022-10-23T12:13:45.386Z,15.87
2022-10-23T12:16:47.727Z,15.95
2022-10-23T12:20:02.295Z,16.03
2022-10-23T12:23:35.885Z,16.14
2022-10-23T12:26:45.700Z,16.13
2022-10-23T12:30:15.353Z,16.12
2022-10-23T12:33:49.545Z,16.12
2022-10-23T12:37:22.146Z,16.09
2022-10-23T12:40:29.923Z,16.07
2022-10-23T12:43:36.073Z,15.92
2022-10-23T12:46:46.242Z,15.91
2022-10-23T12:49:50.504Z,15.95
2022-10-23T12:52:55.860Z,16.00
2022-10-23T12:56:05.075Z,16.04
2022-10-23T12:59:16.104Z,16.02
2022-10-23T13:02:23.037Z,15.94
2022-10-23T13:05:25.698Z,15.96
2022-10-23T13:08:42.021Z,16.09
2022-10-23T13:11:46.842Z,16.11
2022-10-23T13:14:59.103Z,16.05
2022-10-23T13:18:03.457Z,15.87
2022-10-23T13:21:15.956Z,15.82
2022-10-23T13:24:23.088Z,15.67
2022-10-23T13:27:32.105Z,15.53
2022-10-23T13:30:40.461Z,15.49
2022-10-23T13:33:47.858Z,15.48
2022-10-23T13:36:54.940Z,15.42
2022-10-23T13:40:02.894Z,15.37
2022-10-23T13:43:14.597Z,15.42
2022-10-23T13:46:20.323Z,15.49
2022-10-23T13:49:22.470Z,15.49
2022-10-23T13:52:25.063Z,15.53
2022-10-23T13:55:28.162Z,15.51
2022-10-23T13:58:30.674Z,15.53
2022-10-23T14:01:35.849Z,15.54
2022-10-23T14:04:38.304Z,15.56
2022-10-23T14:07:40.523Z,15.51
2022-10-23T14:10:43.070Z,15.48
2022-10-23T14:13:45.506Z,15.45
2022-10-23T14:16:47.914Z,15.45
2022-10-23T14:19:50.169Z,15.43
2022-10-23T14:22:52.562Z,15.40
2022-10-23T14:25:54.643Z,15.38
2022-10-23T14:29:00.651Z,15.41
2022-10-23T14:32:06.534Z,15.38
2022-10-23T14:35:09.080Z,15.39
2022-10-23T14:38:11.211Z,15.38
2022-10-23T14:41:15.930Z,15.38
2022-10-23T14:44:18.015Z,15.32
2022-10-23T14:47:20.375Z,15.33
2022-10-23T14:50:22.487Z,15.33
2022-10-23T14:53:24.839Z,15.32
2022-10-23T14:56:28.034Z,15.30
2022-10-23T14:59:30.565Z,15.29
2022-10-23T15:02:32.637Z,15.28
2022-10-23T15:05:34.979Z,15.29
2022-10-23T15:08:37.247Z,15.31
2022-10-23T15:11:39.657Z,15.27
2022-10-23T15:14:41.853Z,15.29
2022-10-23T15:17:44.241Z,15.29
2022-10-23T15:20:52.409Z,15.30
2022-10-23T15:23:54.952Z,15.32
2022-10-23T15:26:57.159Z,15.32
2022-10-23T15:29:59.582Z,15.30
2022-10-23T15:33:01.678Z,15.28
2022-10-23T15:36:04.164Z,15.31
2022-10-23T15:39:08.939Z,15.31
2022-10-23T15:42:11.378Z,15.30
2022-10-23T15:45:13.761Z,15.32
2022-10-23T15:48:16.123Z,15.32
2022-10-23T15:51:18.232Z,15.33
2022-10-23T15:54:21.475Z,15.34
2022-10-23T15:57:23.602Z,15.31
2022-10-23T16:00:25.989Z,15.30
2022-10-23T16:03:28.399Z,15.30
2022-10-23T16:06:30.779Z,15.33
2022-10-23T16:09:33.283Z,15.33
2022-10-23T16:12:35.379Z,15.32
2022-10-23T16:15:38.418Z,15.32
2022-10-23T16:18:41.362Z,15.33
2022-10-23T16:21:43.699Z,15.36
2022-10-23T16:24:45.772Z,15.37
2022-10-23T16:27:48.176Z,15.40
2022-10-23T16:30:50.287Z,15.40
2022-10-23T16:33:53.176Z,15.40
2022-10-23T16:36:55.328Z,15.40
2022-10-23T16:40:00.050Z,15.40
2022-10-23T16:43:08.400Z,15.42
2022-10-23T16:46:17.386Z,15.43
2022-10-23T16:49:19.482Z,15.44
2022-10-23T16:52:21.882Z,15.44
2022-10-23T16:55:24.033Z,15.46
2022-10-23T16:58:27.084Z,15.46
2022-10-23T17:01:31.439Z,15.45
2022-10-23T17:04:33.966Z,15.42
2022-10-23T17:07:37.170Z,15.42
2022-10-23T17:10:39.552Z,15.41
2022-10-23T17:13:48.095Z,15.38
2022-10-23T17:16:52.089Z,15.39
2022-10-23T17:19:54.197Z,15.40
2022-10-23T17:22:56.543Z,15.41
2022-10-23T17:25:59.106Z,15.37
2022-10-23T17:29:03.627Z,15.38
2022-10-23T17:32:05.985Z,15.40
2022-10-23T17:35:08.583Z,15.39
2022-10-23T17:38:11.405Z,15.40
2022-10-23T17:41:15.797Z,15.39
2022-10-23T17:44:18.125Z,15.37
2022-10-23T17:47:20.477Z,15.40
2022-10-23T17:50:22.571Z,15.43
2022-10-23T17:53:24.927Z,15.43
2022-10-23T17:56:29.623Z,15.43
2022-10-23T17:59:32.367Z,15.45
2022-10-23T18:02:34.480Z,15.42
2022-10-23T18:05:36.949Z,15.41
2022-10-23T18:08:40.611Z,15.37
2022-10-23T18:11:48.078Z,15.38
2022-10-23T18:14:50.607Z,15.35
2022-10-23T18:17:52.978Z,15.32
2022-10-23T18:20:57.539Z,15.31
2022-10-23T18:24:00.862Z,15.33
2022-10-23T18:27:02.970Z,15.33
2022-10-23T18:30:06.554Z,15.33
2022-10-23T18:33:08.704Z,15.29
2022-10-23T18:36:23.322Z,15.28
2022-10-23T18:39:25.954Z,15.22
2022-10-23T18:42:28.289Z,15.24
2022-10-23T18:45:31.341Z,15.21
2022-10-23T18:48:34.109Z,15.18
2022-10-23T18:51:37.465Z,15.16
2022-10-23T18:54:39.858Z,15.20
2022-10-23T18:57:42.588Z,15.15
2022-10-23T19:00:45.855Z,15.14
2022-10-23T19:03:48.151Z,15.17
2022-10-23T19:06:51.004Z,15.08
2022-10-23T19:09:53.273Z,15.06
2022-10-23T19:12:55.631Z,15.10
2022-10-23T19:15:57.791Z,15.07
2022-10-23T19:19:04.050Z,15.08
2022-10-23T19:22:08.510Z,15.10
2022-10-23T19:25:15.141Z,15.09
2022-10-23T19:28:17.329Z,15.08
2022-10-23T19:31:19.674Z,15.04
2022-10-23T19:34:24.704Z,15.02
2022-10-23T19:37:27.077Z,15.00
2022-10-23T19:40:29.146Z,14.99
2022-10-23T19:43:31.518Z,15.02
2022-10-23T19:46:36.712Z,15.00
2022-10-23T19:49:39.183Z,15.01
2022-10-23T19:52:41.300Z,15.01
2022-10-23T19:55:43.652Z,15.02
2022-10-23T19:58:45.758Z,15.01
2022-10-23T20:01:49.378Z,14.93
2022-10-23T20:04:52.422Z,14.92
2022-10-23T20:07:55.119Z,14.86
2022-10-23T20:14:05.203Z,14.90
2022-10-23T20:17:07.537Z,14.90
2022-10-23T20:20:09.929Z,14.88
2022-10-23T20:23:12.330Z,14.90
2022-10-23T20:26:17.893Z,14.93
2022-10-23T20:29:21.330Z,14.94
2022-10-23T20:32:23.418Z,14.92
2022-10-23T20:35:25.806Z,14.90
2022-10-23T20:38:27.865Z,14.92
2022-10-23T20:41:33.086Z,14.93
2022-10-23T20:44:35.399Z,14.93
2022-10-23T20:47:37.799Z,14.86
2022-10-23T20:50:39.880Z,14.88
2022-10-23T20:53:43.196Z,14.82
2022-10-23T20:56:45.337Z,14.77
2022-10-23T20:59:47.714Z,14.77
2022-10-23T21:02:51.398Z,14.79
2022-10-23T21:05:54.797Z,14.79
2022-10-23T21:09:05.134Z,14.75
2022-10-23T21:12:08.722Z,14.74
2022-10-23T21:15:11.083Z,14.71
2022-10-23T21:18:27.172Z,14.71
2022-10-23T21:21:38.316Z,14.73
2022-10-23T21:24:41.017Z,14.75
2022-10-23T21:27:43.436Z,14.73
2022-10-23T21:30:45.959Z,14.61
2022-10-23T21:33:49.091Z,14.65
2022-10-23T21:40:14.286Z,14.67
2022-10-23T21:43:16.745Z,14.70
2022-10-23T21:46:19.555Z,14.69
2022-10-23T21:49:21.979Z,14.67
2022-10-23T21:52:24.094Z,14.68
2022-10-23T21:55:30.121Z,14.66
2022-10-23T21:58:32.262Z,14.67
2022-10-23T22:01:35.385Z,14.65
2022-10-23T22:04:38.906Z,14.64
2022-10-23T22:07:41.160Z,14.62
2022-10-23T22:10:43.597Z,14.62
2022-10-23T22:13:46.149Z,14.63
2022-10-23T22:16:48.871Z,14.63
2022-10-23T22:19:50.944Z,14.65
2022-10-23T22:22:53.287Z,14.65
2022-10-23T22:25:55.702Z,14.67
2022-10-23T22:29:01.101Z,14.62
2022-10-23T22:32:03.240Z,14.62
2022-10-23T22:35:06.127Z,14.65
2022-10-23T22:38:08.232Z,14.61
2022-10-23T22:41:11.141Z,14.65
2022-10-23T22:44:14.775Z,14.63
2022-10-23T22:47:17.131Z,14.63
2022-10-23T22:50:19.303Z,14.64
2022-10-23T22:53:21.640Z,14.65
2022-10-23T22:56:26.547Z,14.62
2022-10-23T22:59:28.984Z,14.58
2022-10-23T23:02:31.062Z,14.61
2022-10-23T23:05:34.004Z,14.55
2022-10-23T23:08:37.936Z,14.46
2022-10-23T23:11:51.192Z,14.45
2022-10-23T23:14:54.365Z,14.43
2022-10-23T23:17:56.963Z,14.40
2022-10-23T23:21:04.153Z,14.34
2022-10-23T23:24:06.545Z,14.33
2022-10-23T23:27:08.614Z,14.36
2022-10-23T23:30:11.106Z,14.36
2022-10-23T23:33:14.487Z,14.38
2022-10-23T23:36:20.780Z,14.39
2022-10-23T23:39:23.024Z,14.42
2022-10-23T23:42:25.351Z,14.41
2022-10-23T23:45:27.853Z,14.39
2022-10-23T23:48:30.198Z,14.38
2022-10-23T23:51:32.310Z,14.36
2022-10-23T23:54:34.638Z,14.40
2022-10-23T23:57:36.737Z,14.39
